Time;durP1;ratioP1;P1;durP2;ratioP2;P2;SDS_P1;SDS_P2;PMS_P1;PMS_P2;Temp;Humidity;BMP_temperature;BMP_pressure;BME280_temperature;BME280_humidity;BME280_pressure;Samples;Min_cycle;Max_cycle;Signal;HPM_P1;HPM_P2
2022/07/04 00:01:05;;;;;;;2.42;1.42;;;;;;;28.15;47.42;99579.72;5079073;28;20027;-85
2022/07/04 00:03:30;;;;;;;2.25;1.30;;;;;;;28.11;47.42;99581.81;5079011;28;20085;-85
2022/07/04 00:05:57;;;;;;;4.05;1.77;;;;;;;28.09;47.68;99581.09;5096436;28;20076;-87
2022/07/04 00:08:23;;;;;;;3.83;1.55;;;;;;;28.09;47.55;99573.03;5084172;28;20028;-85
2022/07/04 00:10:49;;;;;;;3.45;1.70;;;;;;;28.08;47.79;99574.03;5095521;28;20047;-86
2022/07/04 00:13:15;;;;;;;2.92;1.45;;;;;;;28.08;47.67;99581.25;5077316;28;20567;-85
2022/07/04 00:15:40;;;;;;;2.75;1.33;;;;;;;28.04;47.92;99586.06;5079873;28;20032;-85
2022/07/04 00:18:06;;;;;;;2.40;1.27;;;;;;;28.06;47.76;99584.06;5118692;28;20024;-85
2022/07/04 00:20:32;;;;;;;2.35;1.50;;;;;;;28.05;47.78;99576.16;5113118;28;20024;-85
2022/07/04 00:22:58;;;;;;;3.35;1.42;;;;;;;28.04;47.55;99591.41;5077975;28;20039;-85
2022/07/04 00:25:24;;;;;;;3.28;1.63;;;;;;;28.02;47.88;99601.41;5077812;28;20028;-85
2022/07/04 00:27:50;;;;;;;3.70;1.45;;;;;;;28.03;47.49;99605.78;5078411;28;20114;-85
2022/07/04 00:30:16;;;;;;;3.40;1.40;;;;;;;28.01;47.83;99597.03;5095551;28;20028;-85
2022/07/04 00:32:42;;;;;;;3.65;1.40;;;;;;;27.98;47.75;99598.16;5077949;28;20024;-86
2022/07/04 00:35:08;;;;;;;4.22;1.75;;;;;;;27.98;47.73;99608.03;5078737;28;20051;-85
2022/07/04 00:37:34;;;;;;;3.78;1.52;;;;;;;27.97;47.71;99596.47;5096525;28;20048;-86
2022/07/04 00:40:00;;;;;;;2.72;1.50;;;;;;;27.97;47.80;99590.25;5079363;28;20039;-85
2022/07/04 00:42:25;;;;;;;4.28;1.90;;;;;;;27.94;47.89;99587.84;5077772;28;20378;-85
2022/07/04 00:44:51;;;;;;;2.75;1.25;;;;;;;27.94;47.54;99593.22;5095881;28;20089;-86
2022/07/04 00:47:17;;;;;;;2.10;1.25;;;;;;;27.94;47.62;99591.34;5079178;28;20555;-86
2022/07/04 00:49:46;;;;;;;2.88;1.50;;;;;;;27.92;47.60;99587.97;5084238;28;20361;-85
2022/07/04 00:52:13;;;;;;;2.90;1.40;;;;;;;27.92;47.65;99598.69;5079991;28;20059;-85
2022/07/04 00:54:39;;;;;;;2.47;1.30;;;;;;;27.91;47.61;99614.91;5098171;28;20024;-88
2022/07/04 00:57:06;;;;;;;2.47;1.20;;;;;;;27.88;47.38;99613.34;5080317;28;20107;-86
2022/07/04 00:59:32;;;;;;;4.57;1.50;;;;;;;27.86;47.61;99612.66;5078976;28;20472;-88
2022/07/04 01:01:57;;;;;;;2.40;1.20;;;;;;;27.86;47.70;99626.91;5077425;28;20024;-87
2022/07/04 01:04:26;;;;;;;4.00;1.35;;;;;;;27.85;47.69;99619.84;5077916;28;20062;-87
2022/07/04 01:06:52;;;;;;;1.67;1.00;;;;;;;27.83;47.32;99616.44;5077922;28;20024;-87
2022/07/04 01:09:18;;;;;;;4.55;1.30;;;;;;;27.82;47.47;99625.47;5079209;28;20051;-87
2022/07/04 01:11:44;;;;;;;4.28;1.33;;;;;;;27.81;47.57;99629.16;5084425;28;20102;-89
2022/07/04 01:14:10;;;;;;;3.38;1.35;;;;;;;27.80;47.33;99632.78;5091223;28;20445;-85
2022/07/04 01:16:36;;;;;;;1.92;1.17;;;;;;;27.79;47.54;99630.28;5090425;28;20104;-87
2022/07/04 01:19:02;;;;;;;3.25;1.30;;;;;;;27.78;47.31;99618.69;5079017;28;20028;-86
2022/07/04 01:21:28;;;;;;;1.85;1.00;;;;;;;27.77;47.23;99630.41;5083417;28;20054;-87
2022/07/04 01:23:56;;;;;;;2.88;1.20;;;;;;;27.75;47.49;99635.06;5080734;28;20111;-87
2022/07/04 01:26:22;;;;;;;2.90;1.30;;;;;;;27.73;47.47;99627.13;5081280;28;20468;-86
2022/07/04 01:28:49;;;;;;;3.00;1.25;;;;;;;27.73;47.19;99637.00;5080943;28;20019;-85
2022/07/04 01:31:15;;;;;;;3.33;1.38;;;;;;;27.71;47.20;99642.50;5081097;28;20032;-85
2022/07/04 01:33:43;;;;;;;4.05;1.23;;;;;;;27.70;47.16;99631.94;5081028;28;20024;-85
2022/07/04 01:36:09;;;;;;;2.97;1.40;;;;;;;27.66;47.26;99636.72;5080964;28;20458;-85
2022/07/04 01:38:34;;;;;;;4.45;1.30;;;;;;;27.66;47.12;99635.84;5081558;28;20047;-86
2022/07/04 01:41:00;;;;;;;2.55;1.13;;;;;;;27.64;47.18;99630.63;5082087;28;20020;-87
2022/07/04 01:43:26;;;;;;;2.55;1.20;;;;;;;27.65;47.21;99628.78;5082888;28;20457;-85
2022/07/04 01:45:53;;;;;;;3.03;1.13;;;;;;;27.64;46.95;99616.38;5080727;28;20039;-85
2022/07/04 01:48:18;;;;;;;4.65;1.10;;;;;;;27.61;46.96;99623.69;5080875;28;20142;-85
2022/07/04 01:50:44;;;;;;;2.78;1.17;;;;;;;27.57;46.94;99627.59;5080588;28;20116;-85
2022/07/04 01:53:10;;;;;;;2.35;1.27;;;;;;;27.57;47.06;99629.41;5084564;28;20461;-85
2022/07/04 01:55:36;;;;;;;2.78;1.00;;;;;;;27.56;46.79;99617.84;5084571;28;20448;-85
2022/07/04 01:58:02;;;;;;;3.45;1.13;;;;;;;27.55;46.88;99634.06;5098935;28;20031;-85
2022/07/04 02:03:12;;;;;;;2.28;1.10;;;;;;;27.53;46.88;99626.16;5098989;28;20064;-85
2022/07/04 02:05:38;;;;;;;1.35;0.90;;;;;;;27.52;47.06;99619.09;5080354;28;20024;-86
2022/07/04 02:08:05;;;;;;;3.42;1.00;;;;;;;27.50;47.09;99626.41;5080619;28;20523;-85
2022/07/04 02:10:31;;;;;;;2.58;1.20;;;;;;;27.48;46.74;99629.25;5080068;28;20067;-85
2022/07/04 02:13:05;;;;;;;2.25;1.23;;;;;;;27.45;46.89;99634.03;5080121;28;20454;-86
2022/07/04 02:15:39;;;;;;;1.55;1.00;;;;;;;27.45;47.15;99634.03;5080368;28;20059;-85
2022/07/04 02:18:06;;;;;;;1.90;0.80;;;;;;;27.43;46.94;99641.31;5080816;28;20062;-85
2022/07/04 02:20:33;;;;;;;4.55;1.00;;;;;;;27.41;47.12;99638.78;5080566;28;20024;-85
2022/07/04 02:23:00;;;;;;;3.08;1.17;;;;;;;27.40;46.96;99645.13;5081305;28;20096;-85
2022/07/04 02:25:26;;;;;;;5.18;1.27;;;;;;;27.40;46.72;99638.94;5098870;28;20414;-85
2022/07/04 02:27:52;;;;;;;3.33;1.08;;;;;;;27.38;47.07;99639.06;5083915;28;20035;-86
2022/07/04 02:30:18;;;;;;;2.50;1.00;;;;;;;27.38;46.78;99638.19;5080134;28;20035;-87
2022/07/04 02:32:44;;;;;;;2.60;0.98;;;;;;;27.36;47.04;99637.47;5081459;28;20028;-85
2022/07/04 02:35:10;;;;;;;2.95;1.10;;;;;;;27.33;46.95;99634.09;5080093;28;20028;-85
2022/07/04 02:37:37;;;;;;;1.75;1.00;;;;;;;27.32;46.81;99640.41;5079607;28;20082;-86
2022/07/04 02:40:04;;;;;;;2.65;1.23;;;;;;;27.28;47.07;99649.72;5079723;28;20027;-85
2022/07/04 02:42:31;;;;;;;2.65;1.00;;;;;;;27.26;46.96;99640.94;5080306;28;20457;-86
2022/07/04 02:44:58;;;;;;;2.22;0.82;;;;;;;27.23;47.21;99641.22;5080842;28;20028;-86
2022/07/04 02:47:23;;;;;;;3.40;1.40;;;;;;;27.24;47.16;99632.19;5080468;28;20393;-85
2022/07/04 02:49:49;;;;;;;3.28;1.00;;;;;;;27.23;46.78;99627.81;5080043;28;20035;-87
2022/07/04 02:52:15;;;;;;;2.75;1.20;;;;;;;27.23;47.09;99624.28;5098491;28;20032;-87
2022/07/04 02:54:41;;;;;;;3.15;1.10;;;;;;;27.25;47.08;99644.59;5080855;28;20122;-87
2022/07/04 02:57:07;;;;;;;3.83;1.20;;;;;;;27.22;46.86;99639.53;5083428;28;20024;-88
2022/07/04 02:59:33;;;;;;;3.80;1.10;;;;;;;27.19;47.27;99629.91;5084776;28;20472;-86
2022/07/04 03:01:59;;;;;;;2.58;0.93;;;;;;;27.18;47.05;99622.00;5080522;28;20111;-85
2022/07/04 03:04:25;;;;;;;2.45;1.25;;;;;;;27.18;47.14;99627.34;5080110;28;20510;-87
2022/07/04 03:06:50;;;;;;;2.72;1.25;;;;;;;27.15;46.90;99622.25;5079677;28;20388;-86
2022/07/04 03:09:16;;;;;;;2.15;1.08;;;;;;;27.16;46.96;99622.13;5076262;28;20052;-86
2022/07/04 03:11:43;;;;;;;4.10;1.30;;;;;;;27.16;46.94;99635.53;5112506;28;20056;-85
2022/07/04 03:14:09;;;;;;;2.17;0.95;;;;;;;27.15;47.08;99632.97;5076433;28;20040;-87
2022/07/04 03:16:35;;;;;;;2.25;1.00;;;;;;;27.17;47.03;99631.03;5111189;28;20032;-88
2022/07/04 03:19:00;;;;;;;2.70;1.27;;;;;;;27.16;47.14;99629.31;5110370;28;20028;-88
2022/07/04 03:21:26;;;;;;;2.50;1.05;;;;;;;27.12;46.88;99633.25;5110468;28;20160;-85
2022/07/04 03:23:57;;;;;;;2.83;1.17;;;;;;;27.11;46.99;99644.94;5111803;28;20032;-87
2022/07/04 03:26:29;;;;;;;2.60;1.15;;;;;;;27.10;47.16;99651.28;5077470;28;20093;-88
2022/07/04 03:28:55;;;;;;;2.42;1.02;;;;;;;27.10;46.89;99656.63;5116072;28;20070;-88
2022/07/04 03:31:21;;;;;;;3.50;1.33;;;;;;;27.08;46.96;99676.34;5083416;28;20024;-86
2022/07/04 03:33:47;;;;;;;3.13;1.40;;;;;;;27.08;46.74;99684.38;5117081;28;20069;-89
2022/07/04 03:36:13;;;;;;;2.35;1.33;;;;;;;27.07;46.75;99677.31;5119724;28;20021;-85
2022/07/04 03:38:39;;;;;;;2.30;1.13;;;;;;;27.06;46.77;99672.94;5110509;28;20119;-85
2022/07/04 03:41:05;;;;;;;2.75;1.27;;;;;;;27.06;47.14;99677.44;5077643;28;20028;-86
2022/07/04 03:43:30;;;;;;;2.05;1.13;;;;;;;27.03;47.04;99673.19;5076622;28;20465;-87
2022/07/04 03:45:56;;;;;;;2.38;1.02;;;;;;;27.03;46.70;99675.03;5076107;28;20032;-86
2022/07/04 03:48:22;;;;;;;2.47;1.05;;;;;;;27.01;47.12;99677.84;5075607;28;20066;-86
2022/07/04 03:50:47;;;;;;;2.58;1.08;;;;;;;26.98;47.36;99694.16;5110112;28;20029;-86
2022/07/04 03:53:14;;;;;;;1.92;1.00;;;;;;;26.99;46.89;99703.91;5077328;28;20075;-85
2022/07/04 03:55:40;;;;;;;3.42;1.10;;;;;;;26.97;47.09;99692.44;5111458;28;20128;-87
2022/07/04 03:58:06;;;;;;;3.85;1.40;;;;;;;26.97;46.80;99679.06;5076318;28;20114;-86
2022/07/04 04:00:32;;;;;;;2.15;1.13;;;;;;;26.95;46.95;99686.38;5110541;28;20024;-87
2022/07/04 04:02:58;;;;;;;3.95;1.42;;;;;;;26.94;47.12;99673.97;5078306;28;20052;-87
2022/07/04 04:05:27;;;;;;;1.98;1.00;;;;;;;26.94;46.70;99682.84;5110786;28;20356;-85
2022/07/04 04:07:55;;;;;;;2.50;1.05;;;;;;;26.92;46.70;99675.94;5075942;28;20365;-86
2022/07/04 04:10:21;;;;;;;2.15;1.00;;;;;;;26.91;47.08;99674.19;5075850;28;20481;-86
2022/07/04 04:12:47;;;;;;;2.83;1.10;;;;;;;26.89;46.79;99676.16;5110405;28;20115;-86
2022/07/04 04:15:12;;;;;;;2.60;1.05;;;;;;;26.89;47.01;99678.81;5075767;28;20021;-87
2022/07/04 04:17:38;;;;;;;3.05;1.10;;;;;;;26.88;46.86;99693.19;5076580;28;20056;-86
2022/07/04 04:20:04;;;;;;;3.35;1.10;;;;;;;26.87;46.76;99715.59;5109659;28;20461;-86
2022/07/04 04:22:30;;;;;;;3.38;1.08;;;;;;;26.86;47.04;99721.91;5076189;28;20039;-86
2022/07/04 04:24:57;;;;;;;3.80;1.23;;;;;;;26.87;47.12;99715.59;5109829;28;20033;-87
2022/07/04 04:27:23;;;;;;;2.75;1.08;;;;;;;26.85;47.11;99722.88;5075867;28;20484;-85
2022/07/04 04:29:48;;;;;;;3.50;1.23;;;;;;;26.83;47.35;99727.53;5077227;28;20108;-88
2022/07/04 04:32:14;;;;;;;2.22;1.40;;;;;;;26.83;46.87;99730.19;5077558;28;20060;-87
2022/07/04 04:34:40;;;;;;;3.05;1.10;;;;;;;26.81;47.27;99731.19;5081491;28;20032;-86
2022/07/04 04:37:06;;;;;;;3.90;1.30;;;;;;;26.80;46.89;99721.47;5079213;28;20032;-85
2022/07/04 04:39:31;;;;;;;2.55;1.45;;;;;;;26.78;46.94;99731.41;5078007;28;20446;-86
2022/07/04 04:41:57;;;;;;;3.08;1.10;;;;;;;26.78;46.84;99728.75;5077014;28;20442;-86
2022/07/04 04:44:23;;;;;;;2.67;1.20;;;;;;;26.77;46.76;99710.97;5075664;28;20032;-86
2022/07/04 04:46:48;;;;;;;4.07;1.10;;;;;;;26.77;47.10;99716.34;5109566;28;20021;-86
2022/07/04 04:49:14;;;;;;;3.38;1.20;;;;;;;26.77;46.93;99731.53;5109853;28;20444;-87
2022/07/04 04:51:40;;;;;;;2.72;1.23;;;;;;;26.74;46.95;99735.34;5076171;28;20111;-85
2022/07/04 04:54:05;;;;;;;3.33;1.20;;;;;;;26.73;46.99;99736.28;5076057;28;20115;-87
2022/07/04 04:56:31;;;;;;;4.00;1.30;;;;;;;26.73;46.78;99725.59;5075604;28;20126;-87
2022/07/04 04:58:57;;;;;;;2.08;0.93;;;;;;;26.71;47.03;99738.25;5109972;28;20033;-87
2022/07/04 05:01:23;;;;;;;2.42;1.15;;;;;;;26.73;47.31;99733.63;5080932;28;20070;-85
2022/07/04 05:03:49;;;;;;;2.85;1.15;;;;;;;26.71;47.27;99738.25;5081569;28;20025;-87
2022/07/04 05:06:14;;;;;;;2.17;1.27;;;;;;;26.71;46.94;99738.25;5084356;28;20233;-86
2022/07/04 05:08:40;;;;;;;3.38;1.40;;;;;;;26.71;47.16;99746.28;5084623;28;20123;-89
2022/07/04 05:11:06;;;;;;;3.70;1.40;;;;;;;26.70;47.35;99736.56;5113663;28;20037;-85
2022/07/04 05:13:32;;;;;;;2.60;1.10;;;;;;;26.68;47.10;99733.13;5080495;28;20024;-87
2022/07/04 05:15:58;;;;;;;2.85;1.20;;;;;;;26.66;46.97;99748.47;5079342;28;20028;-86
2022/07/04 05:18:23;;;;;;;2.63;1.17;;;;;;;26.65;47.23;99739.63;5114048;28;20051;-87
2022/07/04 05:20:49;;;;;;;2.75;1.30;;;;;;;26.65;47.04;99744.09;5081187;28;20033;-85
2022/07/04 05:23:15;;;;;;;4.53;1.45;;;;;;;26.66;47.30;99732.41;5114473;28;20028;-85
2022/07/04 05:25:43;;;;;;;4.30;1.20;;;;;;;26.63;47.25;99730.00;5079132;28;20086;-87
2022/07/04 05:28:08;;;;;;;2.35;1.20;;;;;;;26.62;47.05;99728.28;5114002;28;20073;-87
2022/07/04 05:30:34;;;;;;;2.40;1.30;;;;;;;26.63;46.96;99736.19;5079355;28;20119;-87
2022/07/04 05:33:02;;;;;;;3.13;1.40;;;;;;;26.62;47.07;99733.63;5113420;28;20055;-86
2022/07/04 05:35:37;;;;;;;2.13;0.88;;;;;;;26.61;47.24;99732.81;5114253;28;20116;-88
2022/07/04 05:38:08;;;;;;;2.25;1.15;;;;;;;26.62;47.08;99745.19;5085619;28;20029;-88
2022/07/04 05:40:40;;;;;;;3.35;1.23;;;;;;;26.61;47.24;99748.00;5082358;28;20033;-87
2022/07/04 05:43:08;;;;;;;2.42;1.10;;;;;;;26.60;47.21;99747.16;5079681;28;20028;-88
2022/07/04 05:45:35;;;;;;;2.08;0.90;;;;;;;26.60;47.18;99746.28;5079235;28;20039;-89
2022/07/04 05:48:02;;;;;;;2.58;1.23;;;;;;;26.58;47.36;99737.56;5079094;28;20028;-87
2022/07/04 05:50:32;;;;;;;2.33;1.00;;;;;;;26.58;47.28;99737.56;5080938;28;20034;-88
2022/07/04 05:52:59;;;;;;;3.55;1.10;;;;;;;26.57;47.06;99735.84;5080582;28;20033;-88
2022/07/04 05:55:29;;;;;;;3.60;1.30;;;;;;;26.57;47.09;99741.22;5112362;28;20127;-88
2022/07/04 05:57:56;;;;;;;3.08;1.08;;;;;;;26.60;47.25;99751.66;5080108;28;20073;-87
2022/07/04 06:00:23;;;;;;;3.33;1.23;;;;;;;26.57;47.09;99751.91;5078549;28;20037;-86
2022/07/04 06:02:52;;;;;;;1.70;0.80;;;;;;;26.57;47.22;99757.25;5111997;28;20037;-85
2022/07/04 06:05:24;;;;;;;3.85;1.27;;;;;;;26.57;47.11;99752.75;5080258;28;20047;-86
2022/07/04 06:07:50;;;;;;;2.78;1.10;;;;;;;26.56;47.10;99755.53;5112560;28;20051;-85
2022/07/04 06:10:17;;;;;;;2.20;1.23;;;;;;;26.56;47.30;99761.75;5113644;28;20048;-85
2022/07/04 06:12:44;;;;;;;2.47;1.05;;;;;;;26.57;47.17;99754.59;5116622;28;20048;-85
2022/07/04 06:15:10;;;;;;;3.33;1.20;;;;;;;26.56;47.49;99755.53;5078182;28;20355;-87
2022/07/04 06:17:37;;;;;;;2.35;1.30;;;;;;;26.58;47.29;99750.94;5078641;28;20040;-85
2022/07/04 06:20:07;;;;;;;2.58;1.38;;;;;;;26.59;47.41;99755.31;5078921;28;20047;-85
2022/07/04 06:22:45;;;;;;;2.25;0.98;;;;;;;26.57;47.22;99758.09;5079146;28;20043;-85
2022/07/04 06:25:15;;;;;;;2.92;1.20;;;;;;;26.58;47.25;99758.97;5112055;28;20036;-85
2022/07/04 06:27:42;;;;;;;3.22;1.08;;;;;;;26.58;47.23;99759.78;5112061;28;20380;-85
2022/07/04 06:30:10;;;;;;;2.47;1.15;;;;;;;26.58;47.54;99754.44;5078559;28;20032;-88
2022/07/04 06:32:52;;;;;;;3.42;1.25;;;;;;;26.60;47.41;99757.00;5112307;28;20028;-86
2022/07/04 06:38:20;;;;;;;1.67;1.08;;;;;;;26.61;47.43;99764.91;5079555;28;20047;-87
2022/07/04 06:40:51;;;;;;;3.22;1.30;;;;;;;26.60;47.49;99759.69;5078524;28;20020;-85
2022/07/04 06:43:30;;;;;;;3.53;1.20;;;;;;;26.62;47.45;99765.75;5078049;28;20046;-86
2022/07/04 06:45:57;;;;;;;2.78;1.23;;;;;;;26.62;47.30;99765.75;5116719;28;20032;-87
2022/07/04 06:48:24;;;;;;;2.65;1.23;;;;;;;26.61;47.42;99756.03;5080423;28;20115;-86
2022/07/04 06:50:50;;;;;;;3.20;1.48;;;;;;;26.61;47.29;99753.34;5111774;28;20424;-86
2022/07/04 06:53:19;;;;;;;3.17;1.40;;;;;;;26.63;47.10;99756.78;5079184;28;20032;-87
2022/07/04 06:55:52;;;;;;;3.17;1.30;;;;;;;26.62;46.99;99782.66;5111406;28;20386;-86
2022/07/04 06:58:56;;;;;;;3.28;1.42;;;;;;;26.63;47.23;99783.53;5077326;28;20424;-87
2022/07/04 07:01:29;;;;;;;3.38;1.30;;;;;;;26.64;46.98;99771.84;5111497;28;20538;-85
2022/07/04 07:03:56;;;;;;;3.95;1.50;;;;;;;26.64;47.38;99753.13;5111030;28;20032;-86
2022/07/04 07:06:25;;;;;;;4.63;1.17;;;;;;;26.65;47.03;99760.16;5110962;28;20035;-88
2022/07/04 07:08:52;;;;;;;4.38;1.30;;;;;;;26.62;47.25;99760.41;5111725;28;20028;-87
2022/07/04 07:11:19;;;;;;;3.28;1.20;;;;;;;26.62;47.29;99760.41;5077564;28;20044;-84
2022/07/04 07:14:00;;;;;;;2.88;1.05;;;;;;;26.62;47.35;99761.25;5113806;28;20032;-86
2022/07/04 07:16:28;;;;;;;3.08;1.40;;;;;;;26.62;47.42;99763.06;5116163;28;20029;-86
2022/07/04 07:18:54;;;;;;;3.10;1.33;;;;;;;26.62;47.18;99763.06;5080024;28;20482;-86
2022/07/04 07:21:23;;;;;;;2.58;1.30;;;;;;;26.61;47.29;99759.56;5077968;28;20024;-87
2022/07/04 07:23:56;;;;;;;3.03;1.40;;;;;;;26.62;47.40;99755.03;5110797;28;20362;-86
2022/07/04 07:26:24;;;;;;;2.60;1.15;;;;;;;26.63;47.35;99748.75;5109923;28;20024;-87
2022/07/04 07:28:54;;;;;;;4.35;1.60;;;;;;;26.63;47.14;99740.72;5077085;28;20020;-86
2022/07/04 07:31:22;;;;;;;2.60;1.30;;;;;;;26.65;47.15;99744.09;5077435;28;20039;-86
2022/07/04 07:33:48;;;;;;;3.20;1.40;;;;;;;26.69;46.98;99740.22;5112282;28;20062;-86
2022/07/04 07:36:21;;;;;;;2.67;1.20;;;;;;;26.67;47.10;99744.81;5078030;28;20035;-88
2022/07/04 07:38:52;;;;;;;1.90;1.13;;;;;;;26.68;47.28;99743.84;5110199;28;20039;-89
2022/07/04 07:41:24;;;;;;;3.58;1.10;;;;;;;26.73;47.18;99740.81;5110310;28;20021;-86
2022/07/04 07:43:51;;;;;;;2.85;1.20;;;;;;;26.72;47.45;99750.66;5076574;28;20027;-85
2022/07/04 07:46:22;;;;;;;4.43;1.50;;;;;;;26.70;47.44;99755.28;5078431;28;20024;-86
2022/07/04 07:48:53;;;;;;;3.83;1.38;;;;;;;26.72;47.02;99755.19;5081297;28;20077;-88
2022/07/04 07:51:20;;;;;;;2.67;1.17;;;;;;;26.74;47.16;99762.09;5081732;28;20035;-87
2022/07/04 07:53:48;;;;;;;3.25;1.13;;;;;;;26.74;47.17;99764.78;5076552;28;20024;-88
2022/07/04 07:56:15;;;;;;;6.25;1.73;;;;;;;26.75;47.13;99769.16;5108997;28;20134;-87
2022/07/04 07:58:50;;;;;;;3.85;1.10;;;;;;;26.78;47.00;99771.56;5076036;28;20028;-87
2022/07/04 08:01:31;;;;;;;2.50;1.17;;;;;;;26.79;47.00;99772.44;5076817;28;20116;-87
2022/07/04 08:06:45;;;;;;;2.75;1.30;;;;;;;26.81;47.22;99775.81;5077816;28;20547;-88
2022/07/04 08:09:19;;;;;;;4.00;1.60;;;;;;;26.81;47.28;99767.78;5077409;28;20032;-86
2022/07/04 08:11:53;;;;;;;4.05;1.58;;;;;;;26.84;47.14;99769.38;5099521;28;20362;-86
2022/07/04 08:14:39;;;;;;;4.05;1.60;;;;;;;26.84;47.25;99764.03;5083141;28;20027;-88
2022/07/04 08:17:06;;;;;;;4.10;1.52;;;;;;;26.84;47.26;99764.88;5085270;28;20031;-88
2022/07/04 08:19:43;;;;;;;3.03;1.35;;;;;;;26.86;47.09;99767.41;5084739;28;20097;-86
2022/07/04 08:22:22;;;;;;;2.60;1.17;;;;;;;26.88;47.15;99757.44;5085437;28;20024;-86
2022/07/04 08:24:57;;;;;;;3.03;1.38;;;;;;;26.90;47.11;99763.50;5079723;28;20028;-85
2022/07/04 08:27:26;;;;;;;2.20;1.40;;;;;;;26.92;47.22;99766.97;5078878;28;20051;-84
2022/07/04 08:30:07;;;;;;;2.80;1.30;;;;;;;26.94;46.82;99759.66;5078755;28;20078;-85
2022/07/04 08:32:38;;;;;;;3.05;1.30;;;;;;;26.94;47.27;99755.13;5077974;28;20028;-86
2022/07/04 08:35:05;;;;;;;4.63;1.60;;;;;;;26.94;46.94;99754.31;5077742;28;20056;-88
2022/07/04 08:37:33;;;;;;;4.03;1.85;;;;;;;26.97;46.80;99764.75;5112544;28;20094;-85
2022/07/04 08:40:06;;;;;;;3.83;1.30;;;;;;;26.97;46.84;99770.09;5096820;28;20395;-85
2022/07/04 08:42:39;;;;;;;2.20;1.25;;;;;;;26.97;47.05;99764.75;5096637;28;20462;-85
2022/07/04 08:45:15;;;;;;;2.60;1.52;;;;;;;26.98;47.13;99761.13;5096434;28;20036;-86
2022/07/04 08:47:44;;;;;;;3.03;1.75;;;;;;;26.98;47.22;99771.81;5078752;28;20102;-85
2022/07/04 08:50:25;;;;;;;4.38;2.10;;;;;;;27.01;47.03;99760.84;5078341;28;20046;-85
2022/07/04 08:53:05;;;;;;;3.00;1.50;;;;;;;27.01;46.85;99766.19;5079389;28;20042;-86
2022/07/04 08:58:30;;;;;;;2.78;1.50;;;;;;;27.03;47.01;99760.72;5096412;28;20510;-86
2022/07/04 09:01:07;;;;;;;3.10;1.63;;;;;;;27.05;46.97;99751.59;5078080;28;20465;-86
2022/07/04 09:03:37;;;;;;;3.88;1.90;;;;;;;27.07;46.69;99749.63;5078404;28;20030;-85
2022/07/04 09:06:05;;;;;;;3.28;1.60;;;;;;;27.07;46.88;99754.97;5079903;28;20023;-85
2022/07/04 09:08:34;;;;;;;3.78;2.00;;;;;;;27.09;46.95;99752.19;5078174;28;20411;-85
2022/07/04 09:11:03;;;;;;;3.67;1.90;;;;;;;27.12;47.08;99745.72;5074068;28;20072;-87
2022/07/04 09:13:31;;;;;;;3.28;1.60;;;;;;;27.12;46.83;99757.28;5108241;28;20382;-87
2022/07/04 09:16:00;;;;;;;3.28;1.80;;;;;;;27.12;46.80;99757.28;5074924;28;20111;-86
2022/07/04 09:18:32;;;;;;;2.70;1.67;;;;;;;27.17;46.83;99759.59;5074397;28;20086;-86
2022/07/04 09:21:02;;;;;;;3.00;1.70;;;;;;;27.18;46.54;99756.78;5076472;28;20020;-87
2022/07/04 09:23:39;;;;;;;4.15;1.85;;;;;;;27.21;46.61;99755.66;5074546;28;20036;-86
2022/07/04 09:26:25;;;;;;;3.20;1.63;;;;;;;27.23;46.80;99752.84;5108222;28;20033;-86
2022/07/04 09:28:59;;;;;;;4.07;1.80;;;;;;;27.23;46.63;99753.72;5076902;28;20039;-86
2022/07/04 09:31:28;;;;;;;4.70;1.88;;;;;;;27.25;46.60;99758.97;5073817;28;20035;-85
2022/07/04 09:34:04;;;;;;;2.33;1.52;;;;;;;27.26;46.59;99757.97;5076168;28;20477;-86
2022/07/04 09:36:39;;;;;;;3.90;1.88;;;;;;;27.27;46.65;99754.31;5074263;28;20029;-85
2022/07/04 09:39:18;;;;;;;3.60;1.92;;;;;;;27.27;46.30;99752.50;5074469;28;20166;-85
2022/07/04 09:42:06;;;;;;;3.72;1.85;;;;;;;27.28;46.34;99751.50;5074689;28;20024;-89
2022/07/04 09:44:44;;;;;;;3.35;1.73;;;;;;;27.32;46.31;99752.94;5074162;28;20025;-87
2022/07/04 09:47:22;;;;;;;3.58;1.70;;;;;;;27.34;46.64;99751.00;5076501;28;20024;-86
2022/07/04 09:50:25;;;;;;;3.05;1.90;;;;;;;27.37;46.16;99749.03;5078519;28;20048;-86
2022/07/04 09:52:55;;;;;;;2.55;1.60;;;;;;;27.39;46.28;99747.06;5077750;28;20024;-84
2022/07/04 09:55:29;;;;;;;3.17;1.75;;;;;;;27.40;46.54;99738.06;5076889;28;20115;-86
2022/07/04 09:58:02;;;;;;;3.92;1.90;;;;;;;27.41;46.30;99745.94;5112392;28;20364;-85
2022/07/04 10:00:35;;;;;;;4.05;1.80;;;;;;;27.44;46.36;99750.19;5081944;28;20036;-85
2022/07/04 10:03:44;;;;;;;3.78;1.70;;;;;;;27.45;46.13;99741.22;5111009;28;20062;-87
2022/07/04 10:06:17;;;;;;;4.45;1.80;;;;;;;27.48;45.91;99743.63;5076684;28;20035;-85
2022/07/04 10:08:48;;;;;;;3.28;1.85;;;;;;;27.48;46.49;99741.81;5078334;28;20025;-86
2022/07/04 10:11:16;;;;;;;2.30;1.40;;;;;;;27.51;46.29;99742.50;5076897;28;20430;-86
2022/07/04 10:13:54;;;;;;;3.15;1.77;;;;;;;27.51;46.08;99746.06;5079788;28;20036;-89
2022/07/04 10:16:34;;;;;;;3.53;1.95;;;;;;;27.50;46.03;99744.31;5132016;28;20039;-86
2022/07/04 10:19:22;;;;;;;3.10;1.95;;;;;;;27.53;46.22;99746.75;5084553;28;20382;-85
2022/07/04 10:21:53;;;;;;;2.65;1.45;;;;;;;27.55;46.21;99742.09;5076905;28;20028;-87
2022/07/04 10:25:20;;;;;;;3.10;2.00;;;;;;;27.57;46.17;99745.53;5075046;28;20032;-86
2022/07/04 10:28:19;;;;;;;2.53;1.77;;;;;;;27.59;45.95;99748.94;5076506;28;20056;-86
2022/07/04 10:31:48;;;;;;;4.07;2.28;;;;;;;27.61;46.22;99751.50;5079597;28;20024;-85
2022/07/04 10:34:54;;;;;;;2.95;2.00;;;;;;;27.64;45.97;99747.72;5100420;28;20063;-88
2022/07/04 10:38:07;;;;;;;2.83;1.65;;;;;;;27.67;45.78;99744.75;5116899;28;20035;-86
2022/07/04 10:41:04;;;;;;;3.78;1.92;;;;;;;27.67;45.91;99739.41;5083842;28;20028;-85
2022/07/04 10:44:15;;;;;;;2.78;1.60;;;;;;;27.71;46.14;99740.84;5073476;28;20033;-85
2022/07/04 10:47:08;;;;;;;3.83;2.00;;;;;;;27.71;46.08;99740.84;5075753;28;20032;-85
2022/07/04 10:49:36;;;;;;;3.13;1.70;;;;;;;27.73;45.99;99734.38;5077245;28;20111;-84
2022/07/04 10:52:15;;;;;;;2.55;1.58;;;;;;;27.76;45.77;99737.75;5109630;28;20035;-85
2022/07/04 10:54:43;;;;;;;2.92;1.70;;;;;;;27.78;46.06;99725.94;5075375;28;20347;-84
2022/07/04 10:57:20;;;;;;;2.75;1.67;;;;;;;27.80;45.96;99732.00;5075228;28;20470;-85
2022/07/04 10:59:56;;;;;;;3.67;2.00;;;;;;;27.82;45.64;99732.72;5075162;28;20032;-85
2022/07/04 11:02:24;;;;;;;4.78;1.73;;;;;;;27.84;45.68;99741.47;5074687;28;20064;-86
2022/07/04 11:04:56;;;;;;;2.88;1.50;;;;;;;27.88;45.41;99729.53;5081072;28;20028;-84
2022/07/04 11:07:43;;;;;;;3.38;1.85;;;;;;;27.88;45.64;99724.16;5079419;28;20481;-85
2022/07/04 11:12:55;;;;;;;2.72;1.70;;;;;;;27.94;45.46;99729.97;5077071;28;19965;-85
2022/07/04 11:15:27;;;;;;;3.20;1.80;;;;;;;27.96;45.58;99723.50;5076412;28;20032;-85
2022/07/04 11:17:55;;;;;;;2.90;1.92;;;;;;;27.99;45.41;99727.75;5075498;28;20535;-87
2022/07/04 11:20:23;;;;;;;2.58;1.60;;;;;;;28.01;45.59;99725.78;5076636;28;20079;-85
2022/07/04 11:22:51;;;;;;;3.50;1.90;;;;;;;28.03;45.83;99726.47;5077213;28;20382;-85
2022/07/04 11:25:31;;;;;;;3.33;1.80;;;;;;;28.03;45.69;99723.78;5110809;28;20025;-85
2022/07/04 11:27:57;;;;;;;3.30;1.85;;;;;;;28.07;45.29;99725.22;5074888;28;20032;-84
2022/07/04 11:30:26;;;;;;;3.08;1.58;;;;;;;28.08;45.75;99720.72;5076801;28;20504;-84
2022/07/04 11:32:52;;;;;;;2.88;1.60;;;;;;;28.10;45.45;99724.97;5076272;28;20044;-85
2022/07/04 11:35:21;;;;;;;3.30;1.77;;;;;;;28.13;45.60;99723.88;5076765;28;20066;-87
2022/07/04 11:37:57;;;;;;;2.22;1.50;;;;;;;28.15;45.48;99721.88;5081601;28;20036;-85
2022/07/04 11:46:33;;;;;;;2.83;1.55;;;;;;;28.21;45.39;99713.28;5034393;28;20021;-85
2022/07/04 11:49:12;;;;;;;3.17;1.58;;;;;;;28.23;45.68;99710.50;5034106;28;20031;-84
2022/07/04 11:51:47;;;;;;;2.58;1.48;;;;;;;28.23;45.55;99713.19;5056317;28;20497;-85
2022/07/04 11:54:13;;;;;;;3.13;1.80;;;;;;;28.24;45.38;99705.00;5108478;28;20024;-84
2022/07/04 11:56:38;;;;;;;2.60;1.67;;;;;;;28.27;45.77;99703.88;5074635;28;20029;-85
2022/07/04 11:59:13;;;;;;;2.60;1.58;;;;;;;28.27;45.41;99694.00;5074560;28;20354;-85
2022/07/04 12:01:41;;;;;;;2.50;1.45;;;;;;;28.27;45.46;99701.19;5074189;28;20115;-86
2022/07/04 12:04:18;;;;;;;2.60;1.52;;;;;;;28.30;45.34;99698.25;5108218;28;20086;-86
2022/07/04 12:06:47;;;;;;;2.55;1.40;;;;;;;28.32;45.56;99700.81;5109057;28;20092;-87
2022/07/04 12:09:14;;;;;;;3.40;1.65;;;;;;;28.36;45.61;99697.69;5076453;28;20058;-85